This is the latest recevied weather packets stored in our database for station/object W1CAT. If no packets are shown the sender has not sent any weather packets the latest 1 day(s).
| Time | Temp. | Humidity | Pressure | Rain* | Wind** | Luminosity | Snow |
|---|---|---|---|---|---|---|---|
| 1836274790 | 15° C | 48% | - | 0 mm | 0 m/s | - | - |
| 1836274488 | 16.11° C | 42% | - | 0 mm | 0 m/s | - | - |
| 1836274342 | 14.44° C | 50% | - | 0 mm | 0 m/s | - | - |
| 1836274187 | 16.11° C | 41% | - | 0 mm | 0.45 m/s, 72° | - | - |
| 1836273886 | 16.67° C | 41% | - | 0 mm | 1.79 m/s, 9° | - | - |
| 1778033765 | 4.44° C | 65% | - | 0 mm | 0.89 m/s, 44° | - | - |
| 1778033462 | 4.44° C | 66% | - | 0 mm | 1.34 m/s, 244° | - | - |
| 1778033159 | 4.44° C | 66% | - | 0 mm | 3.13 m/s, 327° | - | - |
| 1778032857 | 4.44° C | 66% | - | 0 mm | 1.34 m/s, 47° | - | - |
| 1778032554 | 4.44° C | 65% | - | 0 mm | 3.13 m/s, 140° | - | - |
| 1778032251 | 5° C | 65% | - | 0 mm | 1.79 m/s, 256° | - | - |
| 1778031949 | 5° C | 65% | - | 0 mm | 1.79 m/s, 12° | - | - |
| 1778031644 | 5° C | 64% | - | 0 mm | 1.34 m/s, 115° | - | - |
| 1778031342 | 5° C | 65% | - | 0 mm | 4.02 m/s, 261° | - | - |
| 1778031039 | 5° C | 64% | - | 0 mm | 4.02 m/s, 28° | - | - |
| 1778030735 | 5.56° C | 64% | - | 0 mm | 3.13 m/s, 121° | - | - |
| 1778030432 | 6.11° C | 61% | - | 0 mm | 4.02 m/s, 59° | - | - |
| 1778030130 | 6.11° C | 61% | - | 0 mm | 4.92 m/s, 16° | - | - |
| 1778029826 | 6.11° C | 61% | - | 0 mm | 4.02 m/s, 258° | - | - |
| 1778029525 | 6.67° C | 60% | - | 0 mm | 2.24 m/s, 237° | - | - |
| 1778029221 | 7.22° C | 59% | - | 0 mm | 4.47 m/s, 297° | - | - |
| 1778028918 | 7.78° C | 56% | - | 0 mm | 3.13 m/s, 56° | - | - |
| 1778028614 | 8.33° C | 54% | - | 0 mm | 4.02 m/s, 44° | - | - |
| 1778028312 | 8.33° C | 55% | - | 0 mm | 4.47 m/s, 109° | - | - |
| 1778028008 | 10° C | 52% | - | 0 mm | 2.24 m/s, 346° | - | - |
* Rain latest hour (hover to see other rain measurements)
** Current wind speed in m/s (hover to see current wind gust speed)